sensor_id;sensor_type;location;lat;lon;timestamp;temperature;humidity
6357;DHT22;3211;53.452;-2.264;2022-10-31T00:00:15;12.40;99.90
6357;DHT22;3211;53.452;-2.264;2022-10-31T00:02:42;12.30;99.90
6357;DHT22;3211;53.452;-2.264;2022-10-31T00:05:09;12.40;99.90
6357;DHT22;3211;53.452;-2.264;2022-10-31T00:07:38;12.40;99.90
6357;DHT22;3211;53.452;-2.264;2022-10-31T00:10:06;12.40;99.90
6357;DHT22;3211;53.452;-2.264;2022-10-31T00:12:33;12.40;99.90
6357;DHT22;3211;53.452;-2.264;2022-10-31T00:15:00;12.40;99.90
6357;DHT22;3211;53.452;-2.264;2022-10-31T00:17:27;12.40;99.90
6357;DHT22;3211;53.452;-2.264;2022-10-31T00:19:54;12.40;99.90
6357;DHT22;3211;53.452;-2.264;2022-10-31T00:22:22;12.50;99.90
6357;DHT22;3211;53.452;-2.264;2022-10-31T00:24:50;12.50;99.90
6357;DHT22;3211;53.452;-2.264;2022-10-31T00:27:17;12.50;99.90
6357;DHT22;3211;53.452;-2.264;2022-10-31T00:29:44;12.60;99.90
6357;DHT22;3211;53.452;-2.264;2022-10-31T00:32:11;12.70;99.90
6357;DHT22;3211;53.452;-2.264;2022-10-31T00:34:38;12.70;99.90
6357;DHT22;3211;53.452;-2.264;2022-10-31T00:37:05;12.70;99.90
6357;DHT22;3211;53.452;-2.264;2022-10-31T00:39:32;12.70;99.90
6357;DHT22;3211;53.452;-2.264;2022-10-31T00:42:00;12.70;99.90
6357;DHT22;3211;53.452;-2.264;2022-10-31T00:44:27;12.80;99.90
6357;DHT22;3211;53.452;-2.264;2022-10-31T00:46:54;12.70;99.90
6357;DHT22;3211;53.452;-2.264;2022-10-31T00:49:21;12.70;99.90
6357;DHT22;3211;53.452;-2.264;2022-10-31T00:51:48;12.70;99.90
6357;DHT22;3211;53.452;-2.264;2022-10-31T00:54:15;12.70;99.90
6357;DHT22;3211;53.452;-2.264;2022-10-31T00:56:42;12.70;99.90
6357;DHT22;3211;53.452;-2.264;2022-10-31T00:59:10;12.70;99.90
6357;DHT22;3211;53.452;-2.264;2022-10-31T01:01:37;12.70;99.90
6357;DHT22;3211;53.452;-2.264;2022-10-31T01:04:04;12.70;99.90
6357;DHT22;3211;53.452;-2.264;2022-10-31T01:06:31;12.70;99.90
6357;DHT22;3211;53.452;-2.264;2022-10-31T01:08:58;12.70;99.90
6357;DHT22;3211;53.452;-2.264;2022-10-31T01:11:25;12.70;99.90
6357;DHT22;3211;53.452;-2.264;2022-10-31T01:13:53;12.70;99.90
6357;DHT22;3211;53.452;-2.264;2022-10-31T01:16:24;12.70;99.90
6357;DHT22;3211;53.452;-2.264;2022-10-31T01:18:51;12.60;99.90
6357;DHT22;3211;53.452;-2.264;2022-10-31T01:21:21;12.60;99.90
6357;DHT22;3211;53.452;-2.264;2022-10-31T01:23:48;12.60;99.90
6357;DHT22;3211;53.452;-2.264;2022-10-31T01:26:18;12.60;99.90
6357;DHT22;3211;53.452;-2.264;2022-10-31T01:28:47;12.60;99.90
6357;DHT22;3211;53.452;-2.264;2022-10-31T01:31:15;12.60;99.90
6357;DHT22;3211;53.452;-2.264;2022-10-31T01:33:44;12.60;99.90
6357;DHT22;3211;53.452;-2.264;2022-10-31T01:36:13;12.60;99.90
6357;DHT22;3211;53.452;-2.264;2022-10-31T01:38:40;12.60;99.90
6357;DHT22;3211;53.452;-2.264;2022-10-31T01:41:08;12.60;99.90
6357;DHT22;3211;53.452;-2.264;2022-10-31T01:43:48;12.60;99.90
6357;DHT22;3211;53.452;-2.264;2022-10-31T01:46:17;12.50;99.90
6357;DHT22;3211;53.452;-2.264;2022-10-31T01:48:48;12.60;99.90
6357;DHT22;3211;53.452;-2.264;2022-10-31T01:51:17;12.60;99.90
6357;DHT22;3211;53.452;-2.264;2022-10-31T01:53:45;12.50;99.90
6357;DHT22;3211;53.452;-2.264;2022-10-31T01:56:14;12.40;99.90
6357;DHT22;3211;53.452;-2.264;2022-10-31T01:58:44;12.40;99.90
6357;DHT22;3211;53.452;-2.264;2022-10-31T02:01:13;12.40;99.90
6357;DHT22;3211;53.452;-2.264;2022-10-31T02:03:41;12.40;99.90
6357;DHT22;3211;53.452;-2.264;2022-10-31T02:06:13;12.30;99.90
6357;DHT22;3211;53.452;-2.264;2022-10-31T02:08:44;12.30;99.90
6357;DHT22;3211;53.452;-2.264;2022-10-31T02:11:11;12.20;99.90
6357;DHT22;3211;53.452;-2.264;2022-10-31T02:13:38;12.30;99.90
6357;DHT22;3211;53.452;-2.264;2022-10-31T02:16:08;12.30;99.90
6357;DHT22;3211;53.452;-2.264;2022-10-31T02:18:35;12.20;99.90
6357;DHT22;3211;53.452;-2.264;2022-10-31T02:21:11;12.20;99.90
6357;DHT22;3211;53.452;-2.264;2022-10-31T02:26:57;12.10;99.90
6357;DHT22;3211;53.452;-2.264;2022-10-31T02:29:53;12.10;99.90
6357;DHT22;3211;53.452;-2.264;2022-10-31T02:32:27;12.10;99.90
6357;DHT22;3211;53.452;-2.264;2022-10-31T02:35:01;12.00;99.90
6357;DHT22;3211;53.452;-2.264;2022-10-31T02:37:36;12.00;99.90
6357;DHT22;3211;53.452;-2.264;2022-10-31T02:40:10;12.00;99.90
6357;DHT22;3211;53.452;-2.264;2022-10-31T02:42:45;12.00;99.90
6357;DHT22;3211;53.452;-2.264;2022-10-31T02:45:16;12.00;99.90
6357;DHT22;3211;53.452;-2.264;2022-10-31T02:47:49;12.00;99.90
6357;DHT22;3211;53.452;-2.264;2022-10-31T02:50:21;12.00;99.90
6357;DHT22;3211;53.452;-2.264;2022-10-31T02:52:51;11.90;99.90
6357;DHT22;3211;53.452;-2.264;2022-10-31T02:55:44;11.90;99.90
6357;DHT22;3211;53.452;-2.264;2022-10-31T02:58:15;11.90;99.90
6357;DHT22;3211;53.452;-2.264;2022-10-31T03:00:49;11.90;99.90
6357;DHT22;3211;53.452;-2.264;2022-10-31T03:03:24;11.90;99.90
6357;DHT22;3211;53.452;-2.264;2022-10-31T03:05:57;11.80;99.90
6357;DHT22;3211;53.452;-2.264;2022-10-31T03:08:32;11.80;99.90
6357;DHT22;3211;53.452;-2.264;2022-10-31T03:11:03;11.80;99.90
6357;DHT22;3211;53.452;-2.264;2022-10-31T03:13:35;11.80;99.90
6357;DHT22;3211;53.452;-2.264;2022-10-31T03:16:09;11.80;99.90
6357;DHT22;3211;53.452;-2.264;2022-10-31T03:18:40;11.80;99.90
6357;DHT22;3211;53.452;-2.264;2022-10-31T03:21:12;11.80;99.90
6357;DHT22;3211;53.452;-2.264;2022-10-31T03:23:42;11.80;99.90
6357;DHT22;3211;53.452;-2.264;2022-10-31T03:26:11;11.80;99.90
6357;DHT22;3211;53.452;-2.264;2022-10-31T03:28:43;11.70;99.90
6357;DHT22;3211;53.452;-2.264;2022-10-31T03:31:14;11.70;99.90
6357;DHT22;3211;53.452;-2.264;2022-10-31T03:33:46;11.70;99.90
6357;DHT22;3211;53.452;-2.264;2022-10-31T03:36:15;11.60;99.90
6357;DHT22;3211;53.452;-2.264;2022-10-31T03:38:45;11.60;99.90
6357;DHT22;3211;53.452;-2.264;2022-10-31T03:41:17;11.60;99.90
6357;DHT22;3211;53.452;-2.264;2022-10-31T03:43:51;11.60;99.90
6357;DHT22;3211;53.452;-2.264;2022-10-31T03:46:20;11.50;99.90
6357;DHT22;3211;53.452;-2.264;2022-10-31T03:48:49;11.50;99.90
6357;DHT22;3211;53.452;-2.264;2022-10-31T03:51:22;11.50;99.90
6357;DHT22;3211;53.452;-2.264;2022-10-31T03:53:55;11.50;99.90
6357;DHT22;3211;53.452;-2.264;2022-10-31T03:56:29;11.50;99.90
6357;DHT22;3211;53.452;-2.264;2022-10-31T03:59:01;11.50;99.90
6357;DHT22;3211;53.452;-2.264;2022-10-31T04:01:31;11.60;99.90
6357;DHT22;3211;53.452;-2.264;2022-10-31T04:04:00;11.60;99.90
6357;DHT22;3211;53.452;-2.264;2022-10-31T04:06:29;11.70;99.90
6357;DHT22;3211;53.452;-2.264;2022-10-31T04:08:58;11.70;99.90
6357;DHT22;3211;53.452;-2.264;2022-10-31T04:11:31;11.70;99.90
6357;DHT22;3211;53.452;-2.264;2022-10-31T04:14:00;11.70;99.90
6357;DHT22;3211;53.452;-2.264;2022-10-31T04:16:28;11.70;99.90
6357;DHT22;3211;53.452;-2.264;2022-10-31T04:18:56;11.70;99.90
6357;DHT22;3211;53.452;-2.264;2022-10-31T04:21:29;11.70;99.90
6357;DHT22;3211;53.452;-2.264;2022-10-31T04:23:56;11.70;99.90
6357;DHT22;3211;53.452;-2.264;2022-10-31T04:26:23;11.70;99.90
6357;DHT22;3211;53.452;-2.264;2022-10-31T04:28:50;11.80;99.90
6357;DHT22;3211;53.452;-2.264;2022-10-31T04:31:17;11.80;99.90
6357;DHT22;3211;53.452;-2.264;2022-10-31T04:33:44;11.80;99.90
6357;DHT22;3211;53.452;-2.264;2022-10-31T04:36:11;11.80;99.90
6357;DHT22;3211;53.452;-2.264;2022-10-31T04:38:39;11.80;99.90
6357;DHT22;3211;53.452;-2.264;2022-10-31T04:41:06;11.70;99.90
6357;DHT22;3211;53.452;-2.264;2022-10-31T04:43:33;11.70;99.90
6357;DHT22;3211;53.452;-2.264;2022-10-31T04:46:00;11.70;99.90
6357;DHT22;3211;53.452;-2.264;2022-10-31T04:48:27;11.70;99.90
6357;DHT22;3211;53.452;-2.264;2022-10-31T04:50:58;11.60;99.90
6357;DHT22;3211;53.452;-2.264;2022-10-31T04:53:25;11.60;99.90
6357;DHT22;3211;53.452;-2.264;2022-10-31T04:55:54;11.60;99.90
6357;DHT22;3211;53.452;-2.264;2022-10-31T04:58:21;11.60;99.90
6357;DHT22;3211;53.452;-2.264;2022-10-31T05:00:51;11.60;99.90
6357;DHT22;3211;53.452;-2.264;2022-10-31T05:03:18;11.70;99.90
6357;DHT22;3211;53.452;-2.264;2022-10-31T05:05:45;11.60;99.90
6357;DHT22;3211;53.452;-2.264;2022-10-31T05:08:12;11.70;99.90
6357;DHT22;3211;53.452;-2.264;2022-10-31T05:10:39;11.60;99.90
6357;DHT22;3211;53.452;-2.264;2022-10-31T05:13:08;11.70;99.90
6357;DHT22;3211;53.452;-2.264;2022-10-31T05:15:35;11.80;99.90
6357;DHT22;3211;53.452;-2.264;2022-10-31T05:18:02;11.80;99.90
6357;DHT22;3211;53.452;-2.264;2022-10-31T05:20:30;11.90;99.90
6357;DHT22;3211;53.452;-2.264;2022-10-31T05:22:57;12.00;99.90
6357;DHT22;3211;53.452;-2.264;2022-10-31T05:25:27;12.00;99.90
6357;DHT22;3211;53.452;-2.264;2022-10-31T05:27:55;12.00;99.90
6357;DHT22;3211;53.452;-2.264;2022-10-31T05:30:25;12.00;99.90
6357;DHT22;3211;53.452;-2.264;2022-10-31T05:32:53;12.10;99.90
6357;DHT22;3211;53.452;-2.264;2022-10-31T05:35:22;12.10;99.90
6357;DHT22;3211;53.452;-2.264;2022-10-31T05:37:50;12.20;99.90
6357;DHT22;3211;53.452;-2.264;2022-10-31T05:40:18;12.20;99.90
6357;DHT22;3211;53.452;-2.264;2022-10-31T05:42:47;12.20;99.90
6357;DHT22;3211;53.452;-2.264;2022-10-31T05:45:15;12.30;99.90
6357;DHT22;3211;53.452;-2.264;2022-10-31T05:47:50;12.30;99.90
6357;DHT22;3211;53.452;-2.264;2022-10-31T05:50:17;12.30;99.90
6357;DHT22;3211;53.452;-2.264;2022-10-31T05:52:44;12.30;99.90
6357;DHT22;3211;53.452;-2.264;2022-10-31T05:55:12;12.30;99.90
6357;DHT22;3211;53.452;-2.264;2022-10-31T05:57:39;12.30;99.90
6357;DHT22;3211;53.452;-2.264;2022-10-31T06:00:07;12.30;99.90
6357;DHT22;3211;53.452;-2.264;2022-10-31T06:02:34;12.30;99.90
6357;DHT22;3211;53.452;-2.264;2022-10-31T06:05:02;12.30;99.90
6357;DHT22;3211;53.452;-2.264;2022-10-31T06:07:32;12.30;99.90
6357;DHT22;3211;53.452;-2.264;2022-10-31T06:10:00;12.30;99.90
6357;DHT22;3211;53.452;-2.264;2022-10-31T06:12:27;12.30;99.90
6357;DHT22;3211;53.452;-2.264;2022-10-31T06:14:54;12.30;99.90
6357;DHT22;3211;53.452;-2.264;2022-10-31T06:17:21;12.40;99.90
6357;DHT22;3211;53.452;-2.264;2022-10-31T06:19:48;12.40;99.90
6357;DHT22;3211;53.452;-2.264;2022-10-31T06:22:17;12.40;99.90
6357;DHT22;3211;53.452;-2.264;2022-10-31T06:24:44;12.40;99.90
6357;DHT22;3211;53.452;-2.264;2022-10-31T06:27:11;12.40;99.90
6357;DHT22;3211;53.452;-2.264;2022-10-31T06:29:38;12.40;99.90
6357;DHT22;3211;53.452;-2.264;2022-10-31T06:32:05;12.40;99.90
6357;DHT22;3211;53.452;-2.264;2022-10-31T06:34:32;12.40;99.90
6357;DHT22;3211;53.452;-2.264;2022-10-31T06:36:59;12.30;99.90
6357;DHT22;3211;53.452;-2.264;2022-10-31T06:39:27;12.30;99.90
6357;DHT22;3211;53.452;-2.264;2022-10-31T06:41:54;12.30;99.90
6357;DHT22;3211;53.452;-2.264;2022-10-31T06:44:21;12.40;99.90
6357;DHT22;3211;53.452;-2.264;2022-10-31T06:46:48;12.30;99.90
6357;DHT22;3211;53.452;-2.264;2022-10-31T06:49:15;12.30;99.90
6357;DHT22;3211;53.452;-2.264;2022-10-31T06:51:42;12.30;99.90
6357;DHT22;3211;53.452;-2.264;2022-10-31T06:54:09;12.30;99.90
6357;DHT22;3211;53.452;-2.264;2022-10-31T06:56:38;12.30;99.90
6357;DHT22;3211;53.452;-2.264;2022-10-31T06:59:05;12.40;99.90
6357;DHT22;3211;53.452;-2.264;2022-10-31T07:01:32;12.40;99.90
6357;DHT22;3211;53.452;-2.264;2022-10-31T07:03:59;12.40;99.90
6357;DHT22;3211;53.452;-2.264;2022-10-31T07:06:26;12.40;99.90
6357;DHT22;3211;53.452;-2.264;2022-10-31T07:08:53;12.40;99.90
6357;DHT22;3211;53.452;-2.264;2022-10-31T07:11:20;12.50;99.90
6357;DHT22;3211;53.452;-2.264;2022-10-31T07:13:49;12.40;99.90
6357;DHT22;3211;53.452;-2.264;2022-10-31T07:16:16;12.40;99.90
6357;DHT22;3211;53.452;-2.264;2022-10-31T07:18:43;12.40;99.90
6357;DHT22;3211;53.452;-2.264;2022-10-31T07:21:10;12.40;99.90
6357;DHT22;3211;53.452;-2.264;2022-10-31T07:23:37;12.40;99.90
6357;DHT22;3211;53.452;-2.264;2022-10-31T07:26:04;12.40;99.90
6357;DHT22;3211;53.452;-2.264;2022-10-31T07:28:31;12.40;99.90
6357;DHT22;3211;53.452;-2.264;2022-10-31T07:30:59;12.30;99.90
6357;DHT22;3211;53.452;-2.264;2022-10-31T07:33:26;12.40;99.90
6357;DHT22;3211;53.452;-2.264;2022-10-31T07:35:53;12.40;99.90
6357;DHT22;3211;53.452;-2.264;2022-10-31T07:38:20;12.40;99.90
6357;DHT22;3211;53.452;-2.264;2022-10-31T07:40:50;12.50;99.90
6357;DHT22;3211;53.452;-2.264;2022-10-31T07:43:18;12.50;99.90
6357;DHT22;3211;53.452;-2.264;2022-10-31T07:45:49;12.50;99.90
6357;DHT22;3211;53.452;-2.264;2022-10-31T07:48:19;12.50;99.90
6357;DHT22;3211;53.452;-2.264;2022-10-31T07:50:46;12.50;99.90
6357;DHT22;3211;53.452;-2.264;2022-10-31T07:53:14;12.50;99.90
6357;DHT22;3211;53.452;-2.264;2022-10-31T07:55:41;12.60;99.90
6357;DHT22;3211;53.452;-2.264;2022-10-31T07:58:10;12.60;99.90
6357;DHT22;3211;53.452;-2.264;2022-10-31T08:00:39;12.70;99.90
6357;DHT22;3211;53.452;-2.264;2022-10-31T08:03:07;12.80;99.90
6357;DHT22;3211;53.452;-2.264;2022-10-31T08:05:36;12.80;99.90
6357;DHT22;3211;53.452;-2.264;2022-10-31T08:08:04;12.80;99.90
6357;DHT22;3211;53.452;-2.264;2022-10-31T08:10:32;12.90;99.90
6357;DHT22;3211;53.452;-2.264;2022-10-31T08:13:01;12.90;99.90
6357;DHT22;3211;53.452;-2.264;2022-10-31T08:15:29;13.00;99.90
6357;DHT22;3211;53.452;-2.264;2022-10-31T08:17:56;13.00;99.90
6357;DHT22;3211;53.452;-2.264;2022-10-31T08:20:23;13.00;99.90
6357;DHT22;3211;53.452;-2.264;2022-10-31T08:22:56;13.10;99.90
6357;DHT22;3211;53.452;-2.264;2022-10-31T08:25:24;13.10;99.90
6357;DHT22;3211;53.452;-2.264;2022-10-31T08:27:51;13.10;99.90
6357;DHT22;3211;53.452;-2.264;2022-10-31T08:30:18;13.20;99.90
6357;DHT22;3211;53.452;-2.264;2022-10-31T08:32:46;13.20;99.90
6357;DHT22;3211;53.452;-2.264;2022-10-31T08:35:13;13.30;99.90
6357;DHT22;3211;53.452;-2.264;2022-10-31T08:37:41;13.40;99.90
6357;DHT22;3211;53.452;-2.264;2022-10-31T08:40:10;13.40;99.90
6357;DHT22;3211;53.452;-2.264;2022-10-31T08:42:38;13.50;99.90
6357;DHT22;3211;53.452;-2.264;2022-10-31T08:45:06;13.50;99.90
6357;DHT22;3211;53.452;-2.264;2022-10-31T08:47:33;13.60;99.90
6357;DHT22;3211;53.452;-2.264;2022-10-31T08:50:00;13.60;99.90
6357;DHT22;3211;53.452;-2.264;2022-10-31T08:52:27;13.70;99.90
6357;DHT22;3211;53.452;-2.264;2022-10-31T08:54:54;13.80;99.90
6357;DHT22;3211;53.452;-2.264;2022-10-31T08:57:22;13.80;99.90
6357;DHT22;3211;53.452;-2.264;2022-10-31T08:59:49;13.90;99.90
6357;DHT22;3211;53.452;-2.264;2022-10-31T09:02:16;14.00;99.90
6357;DHT22;3211;53.452;-2.264;2022-10-31T09:04:43;14.10;99.90
6357;DHT22;3211;53.452;-2.264;2022-10-31T09:07:10;14.10;99.90
6357;DHT22;3211;53.452;-2.264;2022-10-31T09:09:37;14.20;99.90
6357;DHT22;3211;53.452;-2.264;2022-10-31T09:12:05;14.20;99.90
6357;DHT22;3211;53.452;-2.264;2022-10-31T09:14:51;14.20;99.90
6357;DHT22;3211;53.452;-2.264;2022-10-31T09:17:19;14.20;99.90
6357;DHT22;3211;53.452;-2.264;2022-10-31T09:19:45;14.30;99.90
6357;DHT22;3211;53.452;-2.264;2022-10-31T09:22:12;14.30;99.90
6357;DHT22;3211;53.452;-2.264;2022-10-31T09:24:40;14.20;99.90
6357;DHT22;3211;53.452;-2.264;2022-10-31T09:27:07;14.20;99.90
6357;DHT22;3211;53.452;-2.264;2022-10-31T09:29:35;14.20;99.90
6357;DHT22;3211;53.452;-2.264;2022-10-31T09:32:03;14.30;99.90
6357;DHT22;3211;53.452;-2.264;2022-10-31T09:34:30;14.30;99.90
6357;DHT22;3211;53.452;-2.264;2022-10-31T09:36:57;14.40;99.90
6357;DHT22;3211;53.452;-2.264;2022-10-31T09:39:24;14.40;99.90
6357;DHT22;3211;53.452;-2.264;2022-10-31T09:42:09;14.40;99.90
6357;DHT22;3211;53.452;-2.264;2022-10-31T09:44:49;14.50;99.90
6357;DHT22;3211;53.452;-2.264;2022-10-31T09:47:26;14.50;99.90
6357;DHT22;3211;53.452;-2.264;2022-10-31T09:50:09;14.60;99.90
6357;DHT22;3211;53.452;-2.264;2022-10-31T09:52:41;14.60;99.90
6357;DHT22;3211;53.452;-2.264;2022-10-31T09:55:16;14.60;99.90
6357;DHT22;3211;53.452;-2.264;2022-10-31T09:57:44;14.60;99.90
6357;DHT22;3211;53.452;-2.264;2022-10-31T10:00:16;14.60;99.90
6357;DHT22;3211;53.452;-2.264;2022-10-31T10:02:49;14.60;99.90
6357;DHT22;3211;53.452;-2.264;2022-10-31T10:05:22;14.70;99.90
6357;DHT22;3211;53.452;-2.264;2022-10-31T10:07:59;14.80;99.90
6357;DHT22;3211;53.452;-2.264;2022-10-31T10:10:34;14.90;99.90
6357;DHT22;3211;53.452;-2.264;2022-10-31T10:13:26;15.00;99.90
6357;DHT22;3211;53.452;-2.264;2022-10-31T10:16:22;15.00;99.90
6357;DHT22;3211;53.452;-2.264;2022-10-31T10:19:02;15.00;99.90
6357;DHT22;3211;53.452;-2.264;2022-10-31T10:21:41;15.00;99.90
6357;DHT22;3211;53.452;-2.264;2022-10-31T10:24:21;15.00;99.90
6357;DHT22;3211;53.452;-2.264;2022-10-31T10:27:02;15.10;99.90
6357;DHT22;3211;53.452;-2.264;2022-10-31T10:29:36;15.10;99.90
6357;DHT22;3211;53.452;-2.264;2022-10-31T10:32:10;15.00;99.90
6357;DHT22;3211;53.452;-2.264;2022-10-31T10:34:43;15.00;99.90
6357;DHT22;3211;53.452;-2.264;2022-10-31T10:37:26;15.00;99.90
6357;DHT22;3211;53.452;-2.264;2022-10-31T10:40:00;15.00;99.90
6357;DHT22;3211;53.452;-2.264;2022-10-31T10:42:28;15.00;99.90
6357;DHT22;3211;53.452;-2.264;2022-10-31T10:45:17;15.00;99.90
6357;DHT22;3211;53.452;-2.264;2022-10-31T10:48:08;15.00;99.90
6357;DHT22;3211;53.452;-2.264;2022-10-31T10:50:41;15.00;99.90
6357;DHT22;3211;53.452;-2.264;2022-10-31T10:53:23;15.00;99.90
6357;DHT22;3211;53.452;-2.264;2022-10-31T10:56:03;15.00;99.90
6357;DHT22;3211;53.452;-2.264;2022-10-31T10:58:32;15.00;99.90
6357;DHT22;3211;53.452;-2.264;2022-10-31T11:01:08;15.00;99.90
6357;DHT22;3211;53.452;-2.264;2022-10-31T11:03:35;15.00;99.90
6357;DHT22;3211;53.452;-2.264;2022-10-31T11:06:04;15.00;99.90
6357;DHT22;3211;53.452;-2.264;2022-10-31T11:08:33;15.00;99.90
6357;DHT22;3211;53.452;-2.264;2022-10-31T11:11:02;15.00;99.90
6357;DHT22;3211;53.452;-2.264;2022-10-31T11:13:30;15.00;99.90
6357;DHT22;3211;53.452;-2.264;2022-10-31T11:16:00;15.00;99.90
6357;DHT22;3211;53.452;-2.264;2022-10-31T11:18:30;15.10;99.90
6357;DHT22;3211;53.452;-2.264;2022-10-31T11:21:01;15.10;99.90
6357;DHT22;3211;53.452;-2.264;2022-10-31T11:23:32;15.10;99.90
6357;DHT22;3211;53.452;-2.264;2022-10-31T11:26:01;15.10;99.90
6357;DHT22;3211;53.452;-2.264;2022-10-31T11:28:30;15.20;99.90
6357;DHT22;3211;53.452;-2.264;2022-10-31T11:30:59;15.10;99.90
6357;DHT22;3211;53.452;-2.264;2022-10-31T11:33:31;15.10;99.90
6357;DHT22;3211;53.452;-2.264;2022-10-31T11:35:59;15.10;99.90
6357;DHT22;3211;53.452;-2.264;2022-10-31T11:38:33;15.20;99.90
6357;DHT22;3211;53.452;-2.264;2022-10-31T11:41:08;15.20;99.90
6357;DHT22;3211;53.452;-2.264;2022-10-31T11:43:36;15.20;99.90
6357;DHT22;3211;53.452;-2.264;2022-10-31T11:46:09;15.20;99.90
6357;DHT22;3211;53.452;-2.264;2022-10-31T11:48:36;15.20;99.90
6357;DHT22;3211;53.452;-2.264;2022-10-31T11:51:04;15.30;99.90
6357;DHT22;3211;53.452;-2.264;2022-10-31T11:53:34;15.30;99.90
6357;DHT22;3211;53.452;-2.264;2022-10-31T11:56:04;15.30;99.90
6357;DHT22;3211;53.452;-2.264;2022-10-31T11:58:32;15.30;99.90
6357;DHT22;3211;53.452;-2.264;2022-10-31T12:00:59;15.30;99.90
6357;DHT22;3211;53.452;-2.264;2022-10-31T12:03:42;15.30;99.90
6357;DHT22;3211;53.452;-2.264;2022-10-31T12:06:15;15.30;99.90
6357;DHT22;3211;53.452;-2.264;2022-10-31T12:08:46;15.30;99.90
6357;DHT22;3211;53.452;-2.264;2022-10-31T12:11:25;15.30;99.90
6357;DHT22;3211;53.452;-2.264;2022-10-31T12:14:04;15.30;99.90
6357;DHT22;3211;53.452;-2.264;2022-10-31T12:16:38;15.40;99.90
6357;DHT22;3211;53.452;-2.264;2022-10-31T12:19:14;15.40;99.90
6357;DHT22;3211;53.452;-2.264;2022-10-31T12:22:04;15.40;99.90
6357;DHT22;3211;53.452;-2.264;2022-10-31T12:24:56;15.30;99.90
6357;DHT22;3211;53.452;-2.264;2022-10-31T12:27:34;15.30;99.90
6357;DHT22;3211;53.452;-2.264;2022-10-31T12:30:15;15.30;99.90
6357;DHT22;3211;53.452;-2.264;2022-10-31T12:33:11;15.30;99.90
6357;DHT22;3211;53.452;-2.264;2022-10-31T12:35:45;15.30;99.90
6357;DHT22;3211;53.452;-2.264;2022-10-31T12:38:45;15.20;99.90
6357;DHT22;3211;53.452;-2.264;2022-10-31T12:41:36;15.30;99.90
6357;DHT22;3211;53.452;-2.264;2022-10-31T12:44:25;15.20;99.90
6357;DHT22;3211;53.452;-2.264;2022-10-31T12:47:09;15.20;99.90
6357;DHT22;3211;53.452;-2.264;2022-10-31T12:49:44;15.30;99.90
6357;DHT22;3211;53.452;-2.264;2022-10-31T12:52:34;15.20;99.90
6357;DHT22;3211;53.452;-2.264;2022-10-31T12:55:14;15.30;99.90
6357;DHT22;3211;53.452;-2.264;2022-10-31T12:57:47;15.30;99.90
6357;DHT22;3211;53.452;-2.264;2022-10-31T13:00:17;15.40;99.90
6357;DHT22;3211;53.452;-2.264;2022-10-31T13:02:49;15.40;99.90
6357;DHT22;3211;53.452;-2.264;2022-10-31T13:05:24;15.50;99.90
6357;DHT22;3211;53.452;-2.264;2022-10-31T13:07:56;15.40;99.90
6357;DHT22;3211;53.452;-2.264;2022-10-31T13:10:26;15.50;99.90
6357;DHT22;3211;53.452;-2.264;2022-10-31T13:13:10;15.50;99.90
6357;DHT22;3211;53.452;-2.264;2022-10-31T13:15:47;15.40;99.90
6357;DHT22;3211;53.452;-2.264;2022-10-31T13:18:22;15.40;99.90
6357;DHT22;3211;53.452;-2.264;2022-10-31T13:20:51;15.50;99.90
6357;DHT22;3211;53.452;-2.264;2022-10-31T13:23:24;15.50;99.90
6357;DHT22;3211;53.452;-2.264;2022-10-31T13:25:55;15.50;99.90
6357;DHT22;3211;53.452;-2.264;2022-10-31T13:28:31;15.50;99.90
6357;DHT22;3211;53.452;-2.264;2022-10-31T13:31:01;15.50;99.90
6357;DHT22;3211;53.452;-2.264;2022-10-31T13:33:31;15.60;99.90
6357;DHT22;3211;53.452;-2.264;2022-10-31T13:36:09;15.60;99.90
6357;DHT22;3211;53.452;-2.264;2022-10-31T13:38:44;15.60;99.90
6357;DHT22;3211;53.452;-2.264;2022-10-31T13:41:31;15.60;99.90
6357;DHT22;3211;53.452;-2.264;2022-10-31T13:44:05;15.60;99.90
6357;DHT22;3211;53.452;-2.264;2022-10-31T13:46:38;15.60;99.90
6357;DHT22;3211;53.452;-2.264;2022-10-31T13:49:23;15.50;99.90
6357;DHT22;3211;53.452;-2.264;2022-10-31T13:51:51;15.50;99.90
6357;DHT22;3211;53.452;-2.264;2022-10-31T13:54:23;15.40;99.90
6357;DHT22;3211;53.452;-2.264;2022-10-31T13:56:57;15.50;99.90
6357;DHT22;3211;53.452;-2.264;2022-10-31T13:59:27;15.50;99.90
6357;DHT22;3211;53.452;-2.264;2022-10-31T14:01:56;15.50;99.90
6357;DHT22;3211;53.452;-2.264;2022-10-31T14:04:24;15.50;99.90
6357;DHT22;3211;53.452;-2.264;2022-10-31T14:07:05;15.50;99.90
6357;DHT22;3211;53.452;-2.264;2022-10-31T14:09:36;15.60;99.90
6357;DHT22;3211;53.452;-2.264;2022-10-31T14:12:07;15.50;99.90
6357;DHT22;3211;53.452;-2.264;2022-10-31T14:14:50;15.50;99.90
6357;DHT22;3211;53.452;-2.264;2022-10-31T14:17:21;15.40;99.90
6357;DHT22;3211;53.452;-2.264;2022-10-31T14:20:24;15.30;99.90
6357;DHT22;3211;53.452;-2.264;2022-10-31T14:22:51;15.30;99.90
6357;DHT22;3211;53.452;-2.264;2022-10-31T14:25:30;15.20;99.90
6357;DHT22;3211;53.452;-2.264;2022-10-31T14:27:58;15.20;99.90
6357;DHT22;3211;53.452;-2.264;2022-10-31T14:30:29;15.20;99.90
6357;DHT22;3211;53.452;-2.264;2022-10-31T14:33:00;15.30;99.90
6357;DHT22;3211;53.452;-2.264;2022-10-31T14:35:42;15.40;99.90
6357;DHT22;3211;53.452;-2.264;2022-10-31T14:38:27;15.40;99.90
6357;DHT22;3211;53.452;-2.264;2022-10-31T14:46:57;15.50;99.90
6357;DHT22;3211;53.452;-2.264;2022-10-31T14:49:44;15.40;99.90
6357;DHT22;3211;53.452;-2.264;2022-10-31T14:52:14;15.30;99.90
6357;DHT22;3211;53.452;-2.264;2022-10-31T14:54:47;15.20;99.90
6357;DHT22;3211;53.452;-2.264;2022-10-31T14:57:19;15.20;99.90
6357;DHT22;3211;53.452;-2.264;2022-10-31T14:59:50;15.20;99.90
6357;DHT22;3211;53.452;-2.264;2022-10-31T15:02:23;15.10;99.90
6357;DHT22;3211;53.452;-2.264;2022-10-31T15:04:52;15.10;99.90
6357;DHT22;3211;53.452;-2.264;2022-10-31T15:07:23;15.10;99.90
6357;DHT22;3211;53.452;-2.264;2022-10-31T15:09:58;15.00;99.90
6357;DHT22;3211;53.452;-2.264;2022-10-31T15:12:27;15.10;99.90
6357;DHT22;3211;53.452;-2.264;2022-10-31T15:14:54;15.00;99.90
6357;DHT22;3211;53.452;-2.264;2022-10-31T15:17:24;15.00;99.90
6357;DHT22;3211;53.452;-2.264;2022-10-31T15:19:52;15.00;99.90
6357;DHT22;3211;53.452;-2.264;2022-10-31T15:22:23;15.00;99.90
6357;DHT22;3211;53.452;-2.264;2022-10-31T15:24:50;15.00;99.90
6357;DHT22;3211;53.452;-2.264;2022-10-31T15:27:22;15.00;99.90
6357;DHT22;3211;53.452;-2.264;2022-10-31T15:29:51;15.00;99.90
6357;DHT22;3211;53.452;-2.264;2022-10-31T15:32:20;15.00;99.90
6357;DHT22;3211;53.452;-2.264;2022-10-31T15:34:50;14.90;99.90
6357;DHT22;3211;53.452;-2.264;2022-10-31T15:37:19;14.90;99.90
6357;DHT22;3211;53.452;-2.264;2022-10-31T15:39:48;14.80;99.90
6357;DHT22;3211;53.452;-2.264;2022-10-31T15:42:21;14.80;99.90
6357;DHT22;3211;53.452;-2.264;2022-10-31T15:44:52;14.70;99.90
6357;DHT22;3211;53.452;-2.264;2022-10-31T15:47:22;14.70;99.90
6357;DHT22;3211;53.452;-2.264;2022-10-31T15:49:53;14.70;99.90
6357;DHT22;3211;53.452;-2.264;2022-10-31T15:52:28;14.60;99.90
6357;DHT22;3211;53.452;-2.264;2022-10-31T15:54:58;14.60;99.90
6357;DHT22;3211;53.452;-2.264;2022-10-31T15:57:27;14.60;99.90
6357;DHT22;3211;53.452;-2.264;2022-10-31T15:59:54;14.60;99.90
6357;DHT22;3211;53.452;-2.264;2022-10-31T16:02:23;14.50;99.90
6357;DHT22;3211;53.452;-2.264;2022-10-31T16:04:54;14.50;99.90
6357;DHT22;3211;53.452;-2.264;2022-10-31T16:07:22;14.40;99.90
6357;DHT22;3211;53.452;-2.264;2022-10-31T16:09:54;14.40;99.90
6357;DHT22;3211;53.452;-2.264;2022-10-31T16:12:23;14.50;99.90
6357;DHT22;3211;53.452;-2.264;2022-10-31T16:14:51;14.40;99.90
6357;DHT22;3211;53.452;-2.264;2022-10-31T16:17:20;14.40;99.90